Time;durP1;ratioP1;P1;durP2;ratioP2;P2;SDS_P1;SDS_P2;PMS_P1;PMS_P2;Temp;Humidity;BMP_temperature;BMP_pressure;BME280_temperature;BME280_humidity;BME280_pressure;Samples;Min_cycle;Max_cycle;Signal;HPM_P1;HPM_P2
2023/07/10 00:02:49;;;;;;;24.73;22.07;;;20.00;99.90;;;;;;2614353;54;20135;-80
2023/07/10 00:08:37;;;;;;;24.93;22.30;;;20.00;99.90;;;;;;2615461;54;20958;-80
2023/07/10 00:18:14;;;;;;;24.37;22.03;;;20.00;99.90;;;;;;2615736;54;20437;-80
2023/07/10 00:24:02;;;;;;;23.47;21.13;;;19.90;99.90;;;;;;2616357;31;20880;-80
2023/07/10 00:29:50;;;;;;;24.73;22.03;;;20.00;99.90;;;;;;2614417;54;20663;-80
2023/07/10 00:35:38;;;;;;;24.97;22.40;;;20.00;99.90;;;;;;2615838;39;20539;-81
2023/07/10 00:41:32;;;;;;;27.53;21.90;;;19.90;99.90;;;;;;2614842;54;20391;-80
2023/07/10 01:00:39;;;;;;;25.70;23.20;;;20.10;99.90;;;;;;2615480;54;20379;-80
2023/07/10 01:06:32;;;;;;;26.77;23.33;;;20.10;99.90;;;;;;2615151;54;20122;-80
2023/07/10 01:12:20;;;;;;;26.50;23.67;;;20.10;99.90;;;;;;2614904;54;20407;-80
2023/07/10 01:18:46;;;;;;;25.30;21.90;;;20.10;99.90;;;;;;2614488;54;20471;-80
2023/07/10 01:21:32;;;;;;;22.87;20.40;;;20.10;99.90;;;;;;2614957;54;20419;-81
2023/07/10 01:27:22;;;;;;;25.57;19.17;;;20.00;99.90;;;;;;2613308;54;20371;-80
2023/07/10 01:33:17;;;;;;;20.23;17.90;;;20.00;99.90;;;;;;2614926;39;20850;-80
2023/07/10 01:39:10;;;;;;;19.77;16.90;;;19.90;99.90;;;;;;2615136;54;20387;-80
2023/07/10 01:44:58;;;;;;;18.10;16.30;;;19.90;99.90;;;;;;2615167;54;21264;-80
2023/07/10 01:50:46;;;;;;;16.97;15.27;;;19.90;99.90;;;;;;2615787;39;20552;-80
2023/07/10 01:56:35;;;;;;;22.20;16.00;;;19.90;99.90;;;;;;2615466;54;20123;-79
2023/07/10 02:02:24;;;;;;;17.03;15.23;;;19.80;99.90;;;;;;2614785;54;20515;-77
2023/07/10 02:08:12;;;;;;;17.10;15.30;;;19.80;99.90;;;;;;2614630;54;20392;-79
2023/07/10 02:13:59;;;;;;;16.17;14.30;;;19.80;99.90;;;;;;2615149;54;20146;-79
2023/07/10 02:16:58;;;;;;;18.17;16.30;;;19.80;99.90;;;;;;2613112;46;20459;-79
2023/07/10 02:19:23;;;;;;;17.53;15.83;;;19.80;99.90;;;;;;2614303;54;21035;-79
2023/07/10 02:25:11;;;;;;;18.20;15.77;;;19.80;99.90;;;;;;2615448;54;20640;-79
2023/07/10 02:31:04;;;;;;;18.30;15.87;;;19.80;99.90;;;;;;2616148;54;20155;-79
2023/07/10 02:36:52;;;;;;;20.57;18.30;;;19.80;99.90;;;;;;2616808;54;20387;-79
2023/07/10 02:42:40;;;;;;;21.50;18.60;;;19.80;99.90;;;;;;2614726;54;20691;-79
2023/07/10 02:48:28;;;;;;;21.97;19.67;;;19.80;99.90;;;;;;2614250;54;20395;-81
2023/07/10 02:54:16;;;;;;;24.90;22.43;;;19.70;99.90;;;;;;2614454;54;20161;-79
2023/07/10 03:00:05;;;;;;;28.50;21.47;;;19.70;99.90;;;;;;2615077;54;20358;-78
2023/07/10 03:05:58;;;;;;;23.77;21.43;;;19.60;99.90;;;;;;2614866;54;20379;-79
2023/07/10 03:11:46;;;;;;;24.53;22.03;;;19.50;99.90;;;;;;2614475;39;20879;-78
2023/07/10 03:21:27;;;;;;;32.97;25.70;;;19.70;99.90;;;;;;2615447;54;20432;-78
2023/07/10 03:27:15;;;;;;;29.27;24.23;;;19.70;99.90;;;;;;2613739;54;20390;-78
2023/07/10 03:33:03;;;;;;;29.30;26.30;;;19.70;99.90;;;;;;2614747;54;20193;-78
2023/07/10 03:38:50;;;;;;;28.50;25.37;;;19.70;99.90;;;;;;2614193;54;20151;-79
2023/07/10 03:44:38;;;;;;;30.53;24.67;;;19.60;99.90;;;;;;2615126;54;20153;-79
2023/07/10 03:50:26;;;;;;;28.13;23.50;;;19.60;99.90;;;;;;2613041;54;20158;-80
2023/07/10 03:56:14;;;;;;;28.93;24.77;;;19.60;99.90;;;;;;2614005;54;20131;-79
2023/07/10 04:02:02;;;;;;;29.80;25.97;;;19.70;99.90;;;;;;2614074;54;20387;-80
2023/07/10 04:07:49;;;;;;;28.77;25.67;;;19.70;99.90;;;;;;2613189;54;20645;-80
2023/07/10 04:13:38;;;;;;;30.47;27.33;;;19.60;99.90;;;;;;2613929;54;20138;-79
2023/07/10 04:16:59;;;;;;;30.17;27.17;;;19.50;99.90;;;;;;2613132;54;20938;-78
2023/07/10 04:19:24;;;;;;;34.93;26.70;;;19.50;99.90;;;;;;2614356;54;20432;-78
2023/07/10 04:25:14;;;;;;;30.53;27.37;;;19.50;99.90;;;;;;2613201;54;20157;-78
2023/07/10 04:31:01;;;;;;;40.73;25.20;;;19.50;99.90;;;;;;2614303;54;20378;-78
2023/07/10 04:36:49;;;;;;;30.43;27.20;;;19.40;99.90;;;;;;2614401;54;20122;-77
2023/07/10 04:42:37;;;;;;;38.17;28.40;;;19.40;99.90;;;;;;2614107;54;20130;-78
2023/07/10 04:48:25;;;;;;;33.83;28.30;;;19.40;99.90;;;;;;2612872;54;20953;-80
2023/07/10 04:54:13;;;;;;;35.67;27.70;;;19.30;99.90;;;;;;2612890;54;20436;-78
2023/07/10 05:00:01;;;;;;;37.30;28.50;;;19.30;99.90;;;;;;2612452;54;20130;-79
2023/07/10 05:05:58;;;;;;;35.57;26.90;;;19.30;99.90;;;;;;2613810;54;20163;-79
2023/07/10 05:11:46;;;;;;;30.10;25.27;;;19.30;99.90;;;;;;2614391;54;20416;-79
2023/07/10 05:14:49;;;;;;;30.00;25.13;;;19.20;99.90;;;;;;2613538;54;20949;-79
2023/07/10 05:21:27;;;;;;;31.13;25.57;;;19.20;99.90;;;;;;2613961;54;20419;-79
2023/07/10 05:23:53;;;;;;;30.33;25.70;;;19.20;99.90;;;;;;2613735;47;20448;-79
2023/07/10 05:26:48;;;;;;;32.77;26.37;;;19.30;99.90;;;;;;2612182;47;21057;-80
2023/07/10 05:29:14;;;;;;;26.27;23.47;;;19.30;99.90;;;;;;2607998;54;20174;-79
2023/07/10 05:35:03;;;;;;;25.00;22.30;;;19.40;99.90;;;;;;2612575;54;20422;-79
2023/07/10 05:37:58;;;;;;;29.83;23.33;;;19.30;99.90;;;;;;2611703;54;20451;-79
2023/07/10 05:40:24;;;;;;;23.40;20.90;;;19.40;99.90;;;;;;2612378;47;20473;-80
2023/07/10 05:43:34;;;;;;;27.40;22.67;;;19.40;99.90;;;;;;2612048;54;21226;-80
2023/07/10 05:46:01;;;;;;;24.50;21.90;;;19.50;99.90;;;;;;2612746;54;20226;-78
2023/07/10 05:51:49;;;;;;;27.00;21.20;;;19.50;99.90;;;;;;2613927;54;20424;-81
2023/07/10 05:57:36;;;;;;;25.70;21.33;;;19.50;99.90;;;;;;2614294;54;20183;-79
2023/07/10 06:03:25;;;;;;;25.40;22.90;;;19.40;99.90;;;;;;2613367;54;20138;-79
2023/07/10 06:09:14;;;;;;;27.73;23.70;;;19.70;99.90;;;;;;2612910;54;20516;-80
2023/07/10 06:15:03;;;;;;;27.23;21.13;;;19.80;99.90;;;;;;2612499;54;20407;-79
2023/07/10 06:24:21;;;;;;;28.73;21.47;;;19.90;99.90;;;;;;2612397;39;20819;-78
2023/07/10 06:30:09;;;;;;;16.97;14.27;;;20.00;99.90;;;;;;2613688;46;20422;-76
2023/07/10 06:35:58;;;;;;;11.40;10.40;;;20.10;99.90;;;;;;2613319;54;20455;-76
2023/07/10 06:41:46;;;;;;;21.33;10.43;;;20.10;99.90;;;;;;2613379;54;20399;-76
2023/07/10 06:47:40;;;;;;;10.23;8.83;;;20.10;99.90;;;;;;2613408;54;20118;-75
2023/07/10 06:53:28;;;;;;;10.60;8.50;;;20.30;99.90;;;;;;2614278;54;20375;-75
2023/07/10 06:59:21;;;;;;;15.50;10.50;;;20.70;99.90;;;;;;2614203;54;20159;-76
2023/07/10 07:05:09;;;;;;;12.83;9.87;;;21.20;99.90;;;;;;2614793;54;20916;-75
2023/07/10 07:10:57;;;;;;;12.87;10.00;;;21.40;99.90;;;;;;2614808;54;20411;-76
2023/07/10 07:16:45;;;;;;;15.43;9.13;;;21.40;99.90;;;;;;2612550;54;20134;-75
2023/07/10 07:25:57;;;;;;;15.33;9.40;;;21.80;99.90;;;;;;2611940;54;20456;-75
2023/07/10 07:31:44;;;;;;;9.40;8.57;;;21.70;99.90;;;;;;2614989;39;20745;-80
2023/07/10 07:37:32;;;;;;;7.97;7.27;;;22.10;99.90;;;;;;2615201;54;20166;-80
2023/07/10 07:43:20;;;;;;;8.70;7.20;;;21.90;99.90;;;;;;2615522;54;20778;-81
2023/07/10 07:49:08;;;;;;;7.70;6.40;;;22.40;99.90;;;;;;2615258;54;20134;-80
2023/07/10 07:54:56;;;;;;;12.87;7.57;;;22.50;99.90;;;;;;2616039;54;20138;-81
2023/07/10 08:00:44;;;;;;;24.97;10.70;;;22.60;99.90;;;;;;2614717;54;20138;-82
2023/07/10 08:06:33;;;;;;;13.43;10.57;;;23.20;99.90;;;;;;2616262;54;20147;-82
2023/07/10 08:12:21;;;;;;;15.40;11.00;;;23.20;99.90;;;;;;2615463;54;20367;-81
2023/07/10 08:18:09;;;;;;;11.63;10.43;;;23.30;99.90;;;;;;2615529;46;20159;-82
2023/07/10 08:21:18;;;;;;;12.10;11.20;;;23.60;99.90;;;;;;2613906;54;20419;-82
2023/07/10 08:23:44;;;;;;;11.47;10.27;;;24.20;99.90;;;;;;2615102;54;20519;-80
2023/07/10 08:29:35;;;;;;;11.87;10.80;;;23.60;99.90;;;;;;2614016;54;20151;-76
2023/07/10 08:35:23;;;;;;;12.37;11.27;;;24.30;99.90;;;;;;2612394;54;20514;-75
2023/07/10 08:41:20;;;;;;;10.77;9.53;;;24.00;99.90;;;;;;2610607;31;20659;-75
2023/07/10 08:47:29;;;;;;;10.53;9.70;;;24.80;66.70;;;;;;2614325;39;20775;-75
2023/07/10 08:53:23;;;;;;;9.57;8.77;;;25.80;30.00;;;;;;2615052;54;20397;-79
2023/07/10 09:05:55;;;;;;;9.00;8.40;;;25.10;1.00;;;;;;2612348;46;20452;-74
2023/07/10 09:15:13;;;;;;;11.07;10.23;;;24.50;1.00;;;;;;2613012;54;20375;-81
2023/07/10 09:21:20;;;;;;;10.10;9.30;;;24.70;1.00;;;;;;2611734;54;20420;-81
2023/07/10 09:27:14;;;;;;;10.53;9.30;;;25.40;1.00;;;;;;2612655;54;20418;-82
2023/07/10 09:36:23;;;;;;;10.90;10.20;;;26.10;1.00;;;;;;2613179;54;20462;-82
2023/07/10 09:48:37;;;;;;;10.10;9.60;;;26.70;1.00;;;;;;2613445;54;20395;-81
2023/07/10 10:00:45;;;;;;;9.30;8.70;;;27.00;1.00;;;;;;2614281;54;20407;-81
2023/07/10 10:06:33;;;;;;;11.80;10.67;;;26.20;1.00;;;;;;2615135;54;20927;-80
2023/07/10 10:12:29;;;;;;;11.87;10.73;;;25.50;1.00;;;;;;2613572;54;20203;-81
2023/07/10 10:18:49;;;;;;;11.50;10.37;;;25.00;1.00;;;;;;2616132;54;20525;-83
2023/07/10 10:21:19;;;;;;;10.73;10.13;;;25.50;1.00;;;;;;2615271;39;20884;-80
2023/07/10 10:23:48;;;;;;;11.23;10.60;;;27.00;1.00;;;;;;2617931;46;20453;-80
2023/07/10 10:40:42;;;;;;;10.33;9.70;;;26.50;1.00;;;;;;2626351;54;20413;-81
2023/07/10 10:53:21;;;;;;;11.10;10.50;;;27.00;1.00;;;;;;2626124;46;20402;-81
2023/07/10 11:05:49;;;;;;;11.27;10.67;;;27.50;1.00;;;;;;2612130;39;20966;-75
2023/07/10 11:11:38;;;;;;;11.80;10.70;;;27.20;1.00;;;;;;2614014;54;20392;-75
2023/07/10 11:17:26;;;;;;;10.93;10.03;;;26.20;1.00;;;;;;2613029;54;20407;-76
2023/07/10 11:26:54;;;;;;;12.57;11.90;;;26.40;1.00;;;;;;2613497;54;20403;-75
2023/07/10 11:33:04;;;;;;;11.60;11.03;;;27.30;1.00;;;;;;2613133;54;20379;-76
2023/07/10 11:39:09;;;;;;;12.73;11.83;;;27.50;1.00;;;;;;2612907;39;20968;-75
2023/07/10 11:45:00;;;;;;;12.60;12.03;;;27.20;1.00;;;;;;2611295;54;20438;-75
2023/07/10 11:50:50;;;;;;;13.27;12.40;;;28.00;1.00;;;;;;2613079;54;20395;-77
2023/07/10 11:56:38;;;;;;;12.30;11.70;;;27.90;1.00;;;;;;2612971;39;20778;-83
2023/07/10 12:02:48;;;;;;;12.40;11.80;;;27.30;1.00;;;;;;2614147;46;20179;-81
2023/07/10 12:08:38;;;;;;;12.27;11.60;;;27.80;1.00;;;;;;2614754;54;20444;-81
2023/07/10 12:14:28;;;;;;;12.73;12.03;;;29.10;1.00;;;;;;2614641;54;20399;-80
2023/07/10 12:20:33;;;;;;;12.50;11.90;;;28.60;1.00;;;;;;2621053;54;20407;-80
2023/07/10 12:29:55;;;;;;;12.90;12.30;;;28.80;1.00;;;;;;2614622;54;20391;-82
2023/07/10 12:35:44;;;;;;;13.03;12.10;;;27.70;1.00;;;;;;2615829;39;20756;-82
2023/07/10 12:41:33;;;;;;;13.20;12.30;;;27.40;1.00;;;;;;2616437;39;20767;-81
2023/07/10 12:47:21;;;;;;;13.40;12.70;;;26.70;1.00;;;;;;2614945;54;20439;-83
2023/07/10 13:06:17;;;;;;;21.33;14.77;;;26.20;1.00;;;;;;2611741;54;20446;-81
2023/07/10 13:18:38;;;;;;;14.20;13.30;;;25.40;1.00;;;;;;2613073;54;20431;-82
2023/07/10 13:24:26;;;;;;;13.40;12.70;;;27.20;1.00;;;;;;2613187;54;20411;-79
2023/07/10 13:30:18;;;;;;;14.33;13.40;;;26.60;1.00;;;;;;2611587;54;20114;-78
2023/07/10 13:42:50;;;;;;;14.13;13.33;;;27.20;1.00;;;;;;2612372;54;20585;-80
2023/07/10 13:48:39;;;;;;;14.80;13.60;;;27.80;1.00;;;;;;2613820;54;20129;-79
2023/07/10 13:54:26;;;;;;;12.87;12.20;;;28.50;1.00;;;;;;2613662;54;20395;-80
2023/07/10 14:00:14;;;;;;;13.50;12.80;;;27.00;1.00;;;;;;2613676;54;20242;-80
2023/07/10 14:06:02;;;;;;;13.73;13.10;;;28.30;1.00;;;;;;2612628;54;20428;-80
2023/07/10 14:11:50;;;;;;;13.20;12.27;;;29.50;1.00;;;;;;2614137;54;20206;-79
2023/07/10 14:17:38;;;;;;;13.90;13.07;;;28.70;1.00;;;;;;2613055;54;20436;-78
2023/07/10 14:23:26;;;;;;;13.50;12.30;;;27.80;1.00;;;;;;2611583;54;20163;-80
2023/07/10 14:29:16;;;;;;;14.30;13.43;;;27.60;1.00;;;;;;2611910;54;20131;-79
2023/07/10 14:35:04;;;;;;;14.80;13.70;;;28.70;1.00;;;;;;2613949;54;20487;-80
2023/07/10 14:40:54;;;;;;;13.30;12.70;;;28.70;1.00;;;;;;2612949;54;20423;-80
2023/07/10 14:46:42;;;;;;;13.47;12.70;;;27.90;1.00;;;;;;2614097;39;20747;-80
2023/07/10 14:52:34;;;;;;;12.43;11.77;;;28.30;1.00;;;;;;2614408;39;20621;-79
2023/07/10 14:58:28;;;;;;;14.00;13.07;;;28.20;1.00;;;;;;2612580;54;20384;-80
2023/07/10 15:04:16;;;;;;;14.00;13.30;;;27.60;1.00;;;;;;2613699;54;20456;-81
2023/07/10 15:16:29;;;;;;;15.10;14.20;;;26.40;1.00;;;;;;2614102;54;21033;-81
2023/07/10 15:22:19;;;;;;;15.73;14.30;;;27.10;1.00;;;;;;2615964;54;20420;-82
2023/07/10 15:24:52;;;;;;;15.20;14.40;;;27.20;1.00;;;;;;2615234;54;20498;-76
2023/07/10 15:27:18;;;;;;;14.87;13.87;;;26.80;1.00;;;;;;2614405;39;20832;-75
2023/07/10 15:39:34;;;;;;;14.03;13.33;;;28.60;1.00;;;;;;2615112;54;20465;-75
2023/07/10 15:45:23;;;;;;;15.00;13.70;;;28.00;1.00;;;;;;2614495;54;20155;-75
2023/07/10 15:57:29;;;;;;;15.90;15.10;;;26.50;1.00;;;;;;2609878;39;20850;-76
2023/07/10 16:03:32;;;;;;;15.07;14.27;;;27.10;1.00;;;;;;2612450;54;20162;-76
2023/07/10 16:09:19;;;;;;;14.70;13.67;;;28.50;1.00;;;;;;2613974;54;20401;-76
2023/07/10 16:21:49;;;;;;;14.20;13.50;;;29.00;1.00;;;;;;2613687;54;20423;-75
2023/07/10 16:27:53;;;;;;;14.03;13.43;;;27.00;1.00;;;;;;2612082;54;20395;-79
2023/07/10 16:33:41;;;;;;;14.47;13.77;;;28.50;1.00;;;;;;2612666;54;20720;-80
2023/07/10 16:39:28;;;;;;;15.20;14.50;;;27.60;1.00;;;;;;2614585;54;20950;-79
2023/07/10 16:51:33;;;;;;;16.00;15.20;;;27.60;1.00;;;;;;2617428;54;20387;-78
2023/07/10 16:57:21;;;;;;;16.00;15.03;;;27.90;1.00;;;;;;2619962;54;20153;-80
2023/07/10 17:03:14;;;;;;;15.97;15.17;;;27.80;1.00;;;;;;2620171;54;20403;-80
2023/07/10 17:09:02;;;;;;;16.70;15.67;;;27.90;1.00;;;;;;2621200;54;20395;-79
2023/07/10 17:14:50;;;;;;;16.33;15.23;;;27.90;1.00;;;;;;2619993;54;20433;-79
2023/07/10 17:20:37;;;;;;;16.10;15.33;;;27.50;1.00;;;;;;2617640;54;20127;-80
2023/07/10 17:29:51;;;;;;;17.47;16.67;;;27.00;1.00;;;;;;2616602;54;20519;-79
2023/07/10 17:35:39;;;;;;;15.00;14.30;;;27.00;1.00;;;;;;2616243;54;20392;-81
2023/07/10 17:41:29;;;;;;;14.70;14.10;;;26.60;1.00;;;;;;2616279;54;20795;-80
2023/07/10 17:47:18;;;;;;;16.10;14.90;;;26.50;1.00;;;;;;2614412;54;21308;-81
2023/07/10 17:53:12;;;;;;;15.97;14.90;;;26.30;1.00;;;;;;2614241;54;20410;-77
2023/07/10 17:59:00;;;;;;;17.13;15.23;;;26.10;1.00;;;;;;2613184;54;20404;-77
2023/07/10 18:04:48;;;;;;;16.33;15.03;;;26.10;1.00;;;;;;2614073;54;20228;-76
2023/07/10 18:10:36;;;;;;;15.87;14.70;;;25.60;1.00;;;;;;2614113;54;20978;-77
2023/07/10 18:16:23;;;;;;;15.40;14.20;;;25.60;1.00;;;;;;2614131;54;20177;-77
2023/07/10 18:22:13;;;;;;;15.10;13.80;;;25.40;1.00;;;;;;2614068;54;20204;-77
2023/07/10 18:25:23;;;;;;;14.93;14.20;;;25.30;1.00;;;;;;2613472;54;20419;-77
2023/07/10 18:27:49;;;;;;;15.07;14.37;;;25.20;1.00;;;;;;2613771;54;20957;-81
2023/07/10 18:33:36;;;;;;;14.93;14.33;;;25.30;1.00;;;;;;2614211;54;20183;-79
2023/07/10 18:39:25;;;;;;;16.93;15.30;;;25.20;1.00;;;;;;2614395;54;20151;-80
2023/07/10 18:45:20;;;;;;;15.47;14.57;;;24.80;1.00;;;;;;2613560;54;20155;-82
2023/07/10 18:57:54;;;;;;;19.00;16.00;;;24.20;1.00;;;;;;2614042;54;20815;-82
2023/07/10 19:03:43;;;;;;;16.10;15.17;;;24.00;1.00;;;;;;2614628;54;20412;-82
2023/07/10 19:09:33;;;;;;;16.37;15.17;;;23.70;1.00;;;;;;2614581;54;20371;-82
2023/07/10 19:15:22;;;;;;;15.83;14.70;;;23.60;1.00;;;;;;2614899;54;20404;-82
2023/07/10 19:21:13;;;;;;;15.53;14.60;;;23.20;1.00;;;;;;2613848;54;20400;-83
2023/07/10 19:30:23;;;;;;;15.37;14.50;;;22.70;24.80;;;;;;2613403;54;20435;-82
2023/07/10 19:36:22;;;;;;;14.70;13.80;;;22.50;65.20;;;;;;2613587;46;20158;-83
2023/07/10 19:42:10;;;;;;;13.90;12.70;;;22.30;99.90;;;;;;2613645;54;21036;-82
2023/07/10 19:47:58;;;;;;;14.50;13.50;;;22.10;99.90;;;;;;2613142;54;20159;-82
2023/07/10 19:53:47;;;;;;;14.47;13.00;;;21.90;99.90;;;;;;2614023;54;20391;-82
2023/07/10 19:59:37;;;;;;;13.50;12.43;;;21.80;99.90;;;;;;2614926;46;20393;-83
2023/07/10 20:05:24;;;;;;;14.07;13.07;;;21.50;99.90;;;;;;2614405;54;20415;-82
2023/07/10 20:11:12;;;;;;;13.77;12.87;;;21.30;99.90;;;;;;2615760;31;20704;-80
2023/07/10 20:17:00;;;;;;;13.70;12.80;;;21.20;99.90;;;;;;2615282;54;20637;-80
2023/07/10 20:22:48;;;;;;;13.47;12.47;;;21.00;99.90;;;;;;2614550;39;20438;-80
2023/07/10 20:25:55;;;;;;;14.07;13.03;;;21.10;99.90;;;;;;2614964;54;21005;-79
2023/07/10 20:28:21;;;;;;;13.80;12.93;;;21.00;99.90;;;;;;2615035;54;20395;-80
2023/07/10 20:34:11;;;;;;;14.33;13.10;;;21.00;99.90;;;;;;2615236;54;20691;-79
2023/07/10 20:39:59;;;;;;;13.30;12.37;;;20.90;99.90;;;;;;2614886;54;20387;-78
2023/07/10 20:45:49;;;;;;;14.50;13.20;;;20.70;99.90;;;;;;2615489;54;20140;-80
2023/07/10 20:51:40;;;;;;;13.50;12.50;;;20.60;99.90;;;;;;2615118;54;20945;-80
2023/07/10 20:57:27;;;;;;;14.10;13.03;;;20.70;99.90;;;;;;2614193;54;20444;-79
2023/07/10 21:03:20;;;;;;;13.20;12.50;;;21.00;99.90;;;;;;2614956;54;20175;-80
2023/07/10 21:09:21;;;;;;;14.40;13.30;;;21.10;99.90;;;;;;2615586;54;20404;-80
2023/07/10 21:15:13;;;;;;;13.67;12.70;;;20.90;99.90;;;;;;2614542;54;20441;-80
2023/07/10 21:21:01;;;;;;;14.13;13.03;;;20.70;99.90;;;;;;2614574;54;20989;-79
2023/07/10 21:37:08;;;;;;;14.13;13.20;;;20.50;99.90;;;;;;2613539;54;20488;-80
2023/07/10 21:46:33;;;;;;;13.20;12.40;;;20.00;99.90;;;;;;2613929;54;21015;-79
2023/07/10 21:52:22;;;;;;;13.47;12.53;;;19.80;99.90;;;;;;2614080;54;20429;-79
2023/07/10 22:05:00;;;;;;;12.27;11.30;;;19.20;99.90;;;;;;2613554;54;20488;-78
2023/07/10 22:10:50;;;;;;;13.17;12.07;;;19.10;99.90;;;;;;2614414;54;20383;-79
2023/07/10 22:16:38;;;;;;;12.70;11.80;;;18.90;99.90;;;;;;2615675;54;20390;-80
2023/07/10 22:22:25;;;;;;;12.37;11.67;;;18.90;99.90;;;;;;2616293;54;20151;-80
2023/07/10 22:35:07;;;;;;;13.07;11.87;;;18.70;99.90;;;;;;2614057;54;20421;-79
2023/07/10 22:47:22;;;;;;;14.33;13.03;;;18.50;99.90;;;;;;2614506;54;20394;-79
2023/07/10 22:53:10;;;;;;;12.77;11.47;;;18.30;99.90;;;;;;2613163;54;20403;-79
2023/07/10 22:58:58;;;;;;;11.87;10.60;;;18.30;99.90;;;;;;2613589;54;20391;-79
2023/07/10 23:04:45;;;;;;;10.87;10.03;;;18.20;99.90;;;;;;2614539;54;20415;-80
2023/07/10 23:10:33;;;;;;;11.10;10.30;;;18.10;99.90;;;;;;2615945;54;20130;-79
2023/07/10 23:16:23;;;;;;;10.40;9.60;;;17.90;99.90;;;;;;2615378;54;20146;-80
2023/07/10 23:22:14;;;;;;;9.90;9.30;;;17.80;99.90;;;;;;2615730;54;20536;-80
2023/07/10 23:31:28;;;;;;;10.87;10.13;;;17.80;99.90;;;;;;2616299;54;20404;-79
2023/07/10 23:37:16;;;;;;;10.37;9.77;;;17.60;99.90;;;;;;2616259;54;20414;-79
2023/07/10 23:43:04;;;;;;;10.60;9.60;;;17.70;99.90;;;;;;2616020;54;20921;-78
2023/07/10 23:48:52;;;;;;;10.83;9.83;;;17.60;99.90;;;;;;2617619;54;20131;-79
2023/07/10 23:54:40;;;;;;;10.60;9.67;;;17.60;99.90;;;;;;2625710;54;20134;-79
